sensor_id;sensor_type;location;lat;lon;timestamp;P1;durP1;ratioP1;P2;durP2;ratioP2
17854;SDS011;9053;53.358;6.382;2024-01-30T00:01:51;15.13;;;12.10;;
17854;SDS011;9053;53.358;6.382;2024-01-30T00:04:21;15.83;;;12.03;;
17854;SDS011;9053;53.358;6.382;2024-01-30T00:06:55;16.83;;;12.27;;
17854;SDS011;9053;53.358;6.382;2024-01-30T00:09:26;16.17;;;12.50;;
17854;SDS011;9053;53.358;6.382;2024-01-30T00:11:56;16.50;;;12.77;;
17854;SDS011;9053;53.358;6.382;2024-01-30T00:14:26;17.13;;;12.37;;
17854;SDS011;9053;53.358;6.382;2024-01-30T00:16:56;18.00;;;13.60;;
17854;SDS011;9053;53.358;6.382;2024-01-30T00:19:26;17.60;;;12.20;;
17854;SDS011;9053;53.358;6.382;2024-01-30T00:21:59;16.20;;;12.33;;
17854;SDS011;9053;53.358;6.382;2024-01-30T00:24:29;19.20;;;13.27;;
17854;SDS011;9053;53.358;6.382;2024-01-30T00:26:59;17.13;;;13.07;;
17854;SDS011;9053;53.358;6.382;2024-01-30T00:29:29;19.50;;;13.30;;
17854;SDS011;9053;53.358;6.382;2024-01-30T00:32:00;18.07;;;13.03;;
17854;SDS011;9053;53.358;6.382;2024-01-30T00:34:30;17.73;;;13.07;;
17854;SDS011;9053;53.358;6.382;2024-01-30T00:37:03;16.17;;;13.00;;
17854;SDS011;9053;53.358;6.382;2024-01-30T00:39:33;18.07;;;13.37;;
17854;SDS011;9053;53.358;6.382;2024-01-30T00:42:04;19.40;;;13.50;;
17854;SDS011;9053;53.358;6.382;2024-01-30T00:44:37;17.70;;;13.27;;
17854;SDS011;9053;53.358;6.382;2024-01-30T00:47:08;19.67;;;13.97;;
17854;SDS011;9053;53.358;6.382;2024-01-30T00:49:38;20.17;;;13.63;;
17854;SDS011;9053;53.358;6.382;2024-01-30T00:52:11;18.67;;;13.87;;
17854;SDS011;9053;53.358;6.382;2024-01-30T00:54:42;19.63;;;13.27;;
17854;SDS011;9053;53.358;6.382;2024-01-30T00:57:12;19.87;;;13.83;;
17854;SDS011;9053;53.358;6.382;2024-01-30T00:59:42;19.10;;;13.57;;
17854;SDS011;9053;53.358;6.382;2024-01-30T01:02:14;16.43;;;12.93;;
17854;SDS011;9053;53.358;6.382;2024-01-30T01:04:44;17.73;;;12.83;;
17854;SDS011;9053;53.358;6.382;2024-01-30T01:07:17;17.60;;;13.33;;
17854;SDS011;9053;53.358;6.382;2024-01-30T01:09:47;17.40;;;12.20;;
17854;SDS011;9053;53.358;6.382;2024-01-30T01:12:17;19.10;;;13.70;;
17854;SDS011;9053;53.358;6.382;2024-01-30T01:14:47;16.80;;;13.13;;
17854;SDS011;9053;53.358;6.382;2024-01-30T01:17:17;18.40;;;13.33;;
17854;SDS011;9053;53.358;6.382;2024-01-30T01:19:47;18.93;;;13.27;;
17854;SDS011;9053;53.358;6.382;2024-01-30T01:22:20;18.00;;;12.83;;
17854;SDS011;9053;53.358;6.382;2024-01-30T01:24:50;18.20;;;13.60;;
17854;SDS011;9053;53.358;6.382;2024-01-30T01:27:21;19.13;;;13.10;;
17854;SDS011;9053;53.358;6.382;2024-01-30T01:29:51;18.63;;;13.00;;
17854;SDS011;9053;53.358;6.382;2024-01-30T01:32:21;19.73;;;14.13;;
17854;SDS011;9053;53.358;6.382;2024-01-30T01:34:51;17.87;;;13.13;;
17854;SDS011;9053;53.358;6.382;2024-01-30T01:37:24;18.23;;;13.70;;
17854;SDS011;9053;53.358;6.382;2024-01-30T01:39:54;17.57;;;13.10;;
17854;SDS011;9053;53.358;6.382;2024-01-30T01:42:25;18.33;;;13.47;;
17854;SDS011;9053;53.358;6.382;2024-01-30T01:44:58;17.43;;;13.47;;
17854;SDS011;9053;53.358;6.382;2024-01-30T01:47:28;19.47;;;13.47;;
17854;SDS011;9053;53.358;6.382;2024-01-30T01:49:58;17.83;;;13.33;;
17854;SDS011;9053;53.358;6.382;2024-01-30T01:52:31;19.43;;;13.77;;
17854;SDS011;9053;53.358;6.382;2024-01-30T01:55:02;18.47;;;13.20;;
17854;SDS011;9053;53.358;6.382;2024-01-30T01:57:33;17.73;;;13.50;;
17854;SDS011;9053;53.358;6.382;2024-01-30T02:00:04;19.10;;;13.53;;
17854;SDS011;9053;53.358;6.382;2024-01-30T02:02:37;19.63;;;13.93;;
17854;SDS011;9053;53.358;6.382;2024-01-30T02:05:09;19.77;;;14.27;;
17854;SDS011;9053;53.358;6.382;2024-01-30T02:07:41;19.03;;;14.30;;
17854;SDS011;9053;53.358;6.382;2024-01-30T02:10:13;17.57;;;13.43;;
17854;SDS011;9053;53.358;6.382;2024-01-30T02:12:44;18.00;;;13.40;;
17854;SDS011;9053;53.358;6.382;2024-01-30T02:15:14;18.73;;;13.37;;
17854;SDS011;9053;53.358;6.382;2024-01-30T02:17:44;16.67;;;12.93;;
17854;SDS011;9053;53.358;6.382;2024-01-30T02:20:14;19.23;;;14.07;;
17854;SDS011;9053;53.358;6.382;2024-01-30T02:22:47;19.13;;;13.97;;
17854;SDS011;9053;53.358;6.382;2024-01-30T02:25:18;19.40;;;13.77;;
17854;SDS011;9053;53.358;6.382;2024-01-30T02:27:49;21.53;;;13.50;;
17854;SDS011;9053;53.358;6.382;2024-01-30T02:30:19;22.07;;;15.03;;
17854;SDS011;9053;53.358;6.382;2024-01-30T02:32:50;18.43;;;14.13;;
17854;SDS011;9053;53.358;6.382;2024-01-30T02:35:20;19.43;;;13.93;;
17854;SDS011;9053;53.358;6.382;2024-01-30T02:37:52;14.83;;;12.23;;
17854;SDS011;9053;53.358;6.382;2024-01-30T02:40:22;19.53;;;14.37;;
17854;SDS011;9053;53.358;6.382;2024-01-30T02:42:52;22.23;;;13.50;;
17854;SDS011;9053;53.358;6.382;2024-01-30T02:45:23;19.53;;;13.83;;
17854;SDS011;9053;53.358;6.382;2024-01-30T02:47:53;18.83;;;14.13;;
17854;SDS011;9053;53.358;6.382;2024-01-30T02:50:24;19.13;;;13.93;;
17854;SDS011;9053;53.358;6.382;2024-01-30T02:52:57;18.80;;;13.53;;
17854;SDS011;9053;53.358;6.382;2024-01-30T02:55:27;16.47;;;12.80;;
17854;SDS011;9053;53.358;6.382;2024-01-30T02:57:57;19.60;;;14.10;;
17854;SDS011;9053;53.358;6.382;2024-01-30T03:00:27;22.03;;;15.47;;
17854;SDS011;9053;53.358;6.382;2024-01-30T03:02:57;18.83;;;14.20;;
17854;SDS011;9053;53.358;6.382;2024-01-30T03:05:28;16.77;;;12.97;;
17854;SDS011;9053;53.358;6.382;2024-01-30T03:08:01;19.33;;;13.60;;
17854;SDS011;9053;53.358;6.382;2024-01-30T03:10:31;18.67;;;13.13;;
17854;SDS011;9053;53.358;6.382;2024-01-30T03:13:01;18.03;;;13.60;;
17854;SDS011;9053;53.358;6.382;2024-01-30T03:15:31;18.80;;;13.60;;
17854;SDS011;9053;53.358;6.382;2024-01-30T03:18:01;19.17;;;14.40;;
17854;SDS011;9053;53.358;6.382;2024-01-30T03:20:32;18.97;;;13.53;;
17854;SDS011;9053;53.358;6.382;2024-01-30T03:23:05;18.37;;;13.50;;
17854;SDS011;9053;53.358;6.382;2024-01-30T03:25:35;19.67;;;14.13;;
17854;SDS011;9053;53.358;6.382;2024-01-30T03:28:05;21.03;;;13.97;;
17854;SDS011;9053;53.358;6.382;2024-01-30T03:30:35;19.27;;;13.90;;
17854;SDS011;9053;53.358;6.382;2024-01-30T03:33:06;19.13;;;13.57;;
17854;SDS011;9053;53.358;6.382;2024-01-30T03:35:36;19.17;;;14.10;;
17854;SDS011;9053;53.358;6.382;2024-01-30T03:38:08;20.37;;;14.20;;
17854;SDS011;9053;53.358;6.382;2024-01-30T03:40:38;20.73;;;13.67;;
17854;SDS011;9053;53.358;6.382;2024-01-30T03:43:08;19.90;;;13.83;;
17854;SDS011;9053;53.358;6.382;2024-01-30T03:45:39;17.97;;;13.57;;
17854;SDS011;9053;53.358;6.382;2024-01-30T03:48:10;20.00;;;14.33;;
17854;SDS011;9053;53.358;6.382;2024-01-30T03:50:39;22.07;;;14.20;;
17854;SDS011;9053;53.358;6.382;2024-01-30T03:53:12;20.93;;;15.13;;
17854;SDS011;9053;53.358;6.382;2024-01-30T03:55:42;22.07;;;14.60;;
17854;SDS011;9053;53.358;6.382;2024-01-30T03:58:12;18.53;;;13.37;;
17854;SDS011;9053;53.358;6.382;2024-01-30T04:00:43;19.67;;;14.43;;
17854;SDS011;9053;53.358;6.382;2024-01-30T04:03:14;18.57;;;13.47;;
17854;SDS011;9053;53.358;6.382;2024-01-30T04:05:45;18.83;;;13.53;;
17854;SDS011;9053;53.358;6.382;2024-01-30T04:08:18;17.77;;;13.10;;
17854;SDS011;9053;53.358;6.382;2024-01-30T04:10:48;17.90;;;13.67;;
17854;SDS011;9053;53.358;6.382;2024-01-30T04:13:18;17.73;;;13.20;;
17854;SDS011;9053;53.358;6.382;2024-01-30T04:15:48;18.27;;;13.10;;
17854;SDS011;9053;53.358;6.382;2024-01-30T04:18:18;17.13;;;12.97;;
17854;SDS011;9053;53.358;6.382;2024-01-30T04:20:48;19.77;;;13.57;;
17854;SDS011;9053;53.358;6.382;2024-01-30T04:23:21;17.13;;;13.23;;
17854;SDS011;9053;53.358;6.382;2024-01-30T04:25:52;21.23;;;13.83;;
17854;SDS011;9053;53.358;6.382;2024-01-30T04:28:22;19.43;;;13.60;;
17854;SDS011;9053;53.358;6.382;2024-01-30T04:30:51;18.57;;;12.50;;
17854;SDS011;9053;53.358;6.382;2024-01-30T04:33:21;17.23;;;12.90;;
17854;SDS011;9053;53.358;6.382;2024-01-30T04:35:51;19.90;;;13.43;;
17854;SDS011;9053;53.358;6.382;2024-01-30T04:38:25;18.50;;;12.93;;
17854;SDS011;9053;53.358;6.382;2024-01-30T04:40:55;19.07;;;12.57;;
17854;SDS011;9053;53.358;6.382;2024-01-30T04:43:25;18.77;;;13.20;;
17854;SDS011;9053;53.358;6.382;2024-01-30T04:45:56;17.90;;;12.57;;
17854;SDS011;9053;53.358;6.382;2024-01-30T04:48:27;20.30;;;13.50;;
17854;SDS011;9053;53.358;6.382;2024-01-30T04:50:57;19.43;;;14.57;;
17854;SDS011;9053;53.358;6.382;2024-01-30T04:53:32;20.10;;;14.00;;
17854;SDS011;9053;53.358;6.382;2024-01-30T04:56:02;17.57;;;13.13;;
17854;SDS011;9053;53.358;6.382;2024-01-30T04:58:33;21.77;;;14.70;;
17854;SDS011;9053;53.358;6.382;2024-01-30T05:01:04;17.80;;;12.57;;
17854;SDS011;9053;53.358;6.382;2024-01-30T05:03:34;17.77;;;13.70;;
17854;SDS011;9053;53.358;6.382;2024-01-30T05:06:05;19.50;;;14.27;;
17854;SDS011;9053;53.358;6.382;2024-01-30T05:08:38;18.77;;;13.40;;
17854;SDS011;9053;53.358;6.382;2024-01-30T05:11:08;16.80;;;12.67;;
17854;SDS011;9053;53.358;6.382;2024-01-30T05:13:38;19.70;;;13.43;;
17854;SDS011;9053;53.358;6.382;2024-01-30T05:16:08;17.33;;;13.17;;
17854;SDS011;9053;53.358;6.382;2024-01-30T05:18:38;18.57;;;12.70;;
17854;SDS011;9053;53.358;6.382;2024-01-30T05:21:08;21.60;;;14.30;;
17854;SDS011;9053;53.358;6.382;2024-01-30T05:23:42;21.13;;;14.07;;
17854;SDS011;9053;53.358;6.382;2024-01-30T05:26:12;17.90;;;13.20;;
17854;SDS011;9053;53.358;6.382;2024-01-30T05:28:42;17.27;;;12.33;;
17854;SDS011;9053;53.358;6.382;2024-01-30T05:31:13;21.67;;;14.43;;
17854;SDS011;9053;53.358;6.382;2024-01-30T05:33:44;17.80;;;13.87;;
17854;SDS011;9053;53.358;6.382;2024-01-30T05:36:14;19.50;;;13.97;;
17854;SDS011;9053;53.358;6.382;2024-01-30T05:38:46;21.67;;;13.97;;
17854;SDS011;9053;53.358;6.382;2024-01-30T05:41:16;18.37;;;12.83;;
17854;SDS011;9053;53.358;6.382;2024-01-30T05:43:48;20.53;;;13.83;;
17854;SDS011;9053;53.358;6.382;2024-01-30T05:46:20;19.27;;;13.37;;
17854;SDS011;9053;53.358;6.382;2024-01-30T05:48:51;17.93;;;13.77;;
17854;SDS011;9053;53.358;6.382;2024-01-30T05:51:21;18.27;;;14.07;;
17854;SDS011;9053;53.358;6.382;2024-01-30T05:53:53;20.60;;;13.83;;
17854;SDS011;9053;53.358;6.382;2024-01-30T05:56:23;21.13;;;14.50;;
17854;SDS011;9053;53.358;6.382;2024-01-30T05:58:54;20.07;;;13.93;;
17854;SDS011;9053;53.358;6.382;2024-01-30T06:01:24;18.87;;;12.93;;
17854;SDS011;9053;53.358;6.382;2024-01-30T06:03:56;19.87;;;13.90;;
17854;SDS011;9053;53.358;6.382;2024-01-30T06:06:26;22.00;;;14.73;;
17854;SDS011;9053;53.358;6.382;2024-01-30T06:08:58;21.10;;;14.00;;
17854;SDS011;9053;53.358;6.382;2024-01-30T06:11:29;18.50;;;13.57;;
17854;SDS011;9053;53.358;6.382;2024-01-30T06:13:59;19.70;;;14.10;;
17854;SDS011;9053;53.358;6.382;2024-01-30T06:16:29;20.10;;;14.00;;
17854;SDS011;9053;53.358;6.382;2024-01-30T06:18:59;19.07;;;13.10;;
17854;SDS011;9053;53.358;6.382;2024-01-30T06:21:29;18.57;;;12.70;;
17854;SDS011;9053;53.358;6.382;2024-01-30T06:24:06;17.50;;;11.97;;
17854;SDS011;9053;53.358;6.382;2024-01-30T06:26:36;18.00;;;13.40;;
17854;SDS011;9053;53.358;6.382;2024-01-30T06:29:06;17.60;;;12.63;;
17854;SDS011;9053;53.358;6.382;2024-01-30T06:31:39;16.90;;;12.57;;
17854;SDS011;9053;53.358;6.382;2024-01-30T06:34:10;18.40;;;12.43;;
17854;SDS011;9053;53.358;6.382;2024-01-30T06:36:41;17.90;;;13.27;;
17854;SDS011;9053;53.358;6.382;2024-01-30T06:39:14;18.90;;;13.13;;
17854;SDS011;9053;53.358;6.382;2024-01-30T06:41:44;17.07;;;12.43;;
17854;SDS011;9053;53.358;6.382;2024-01-30T06:44:15;20.03;;;13.33;;
17854;SDS011;9053;53.358;6.382;2024-01-30T06:46:46;19.13;;;12.77;;
17854;SDS011;9053;53.358;6.382;2024-01-30T06:49:16;19.37;;;13.27;;
17854;SDS011;9053;53.358;6.382;2024-01-30T06:51:46;18.67;;;13.60;;
17854;SDS011;9053;53.358;6.382;2024-01-30T06:54:21;18.60;;;13.07;;
17854;SDS011;9053;53.358;6.382;2024-01-30T06:56:51;18.47;;;12.70;;
17854;SDS011;9053;53.358;6.382;2024-01-30T06:59:21;18.30;;;13.00;;
17854;SDS011;9053;53.358;6.382;2024-01-30T07:01:50;19.87;;;13.50;;
17854;SDS011;9053;53.358;6.382;2024-01-30T07:04:21;16.37;;;12.83;;
17854;SDS011;9053;53.358;6.382;2024-01-30T07:06:52;20.97;;;13.80;;
17854;SDS011;9053;53.358;6.382;2024-01-30T07:09:25;18.97;;;12.53;;
17854;SDS011;9053;53.358;6.382;2024-01-30T07:11:55;17.93;;;13.23;;
17854;SDS011;9053;53.358;6.382;2024-01-30T07:14:26;18.10;;;12.67;;
17854;SDS011;9053;53.358;6.382;2024-01-30T07:16:56;20.10;;;13.20;;
17854;SDS011;9053;53.358;6.382;2024-01-30T07:19:26;21.67;;;13.10;;
17854;SDS011;9053;53.358;6.382;2024-01-30T07:21:56;19.63;;;13.23;;
17854;SDS011;9053;53.358;6.382;2024-01-30T07:24:29;19.03;;;13.40;;
17854;SDS011;9053;53.358;6.382;2024-01-30T07:26:59;18.70;;;13.07;;
17854;SDS011;9053;53.358;6.382;2024-01-30T07:29:29;15.80;;;12.57;;
17854;SDS011;9053;53.358;6.382;2024-01-30T07:31:58;18.27;;;13.23;;
17854;SDS011;9053;53.358;6.382;2024-01-30T07:34:29;18.10;;;12.37;;
17854;SDS011;9053;53.358;6.382;2024-01-30T07:37:10;17.70;;;12.63;;
17854;SDS011;9053;53.358;6.382;2024-01-30T07:39:44;17.10;;;12.27;;
17854;SDS011;9053;53.358;6.382;2024-01-30T07:42:14;17.73;;;12.10;;
17854;SDS011;9053;53.358;6.382;2024-01-30T07:44:48;17.07;;;12.00;;
17854;SDS011;9053;53.358;6.382;2024-01-30T07:47:19;16.27;;;12.03;;
17854;SDS011;9053;53.358;6.382;2024-01-30T07:49:50;18.50;;;12.30;;
17854;SDS011;9053;53.358;6.382;2024-01-30T07:52:21;15.87;;;11.97;;
17854;SDS011;9053;53.358;6.382;2024-01-30T07:54:53;16.67;;;11.87;;
17854;SDS011;9053;53.358;6.382;2024-01-30T07:57:24;15.80;;;11.70;;
17854;SDS011;9053;53.358;6.382;2024-01-30T07:59:54;19.30;;;12.97;;
17854;SDS011;9053;53.358;6.382;2024-01-30T08:02:25;19.33;;;13.57;;
17854;SDS011;9053;53.358;6.382;2024-01-30T08:04:55;16.97;;;11.90;;
17854;SDS011;9053;53.358;6.382;2024-01-30T08:07:25;19.47;;;12.53;;
17854;SDS011;9053;53.358;6.382;2024-01-30T08:09:59;17.30;;;12.20;;
17854;SDS011;9053;53.358;6.382;2024-01-30T08:12:29;17.77;;;11.33;;
17854;SDS011;9053;53.358;6.382;2024-01-30T08:14:59;16.63;;;12.20;;
17854;SDS011;9053;53.358;6.382;2024-01-30T08:17:29;15.97;;;10.30;;
17854;SDS011;9053;53.358;6.382;2024-01-30T08:19:59;17.57;;;11.23;;
17854;SDS011;9053;53.358;6.382;2024-01-30T08:22:31;20.93;;;12.67;;
17854;SDS011;9053;53.358;6.382;2024-01-30T08:25:06;15.87;;;11.10;;
17854;SDS011;9053;53.358;6.382;2024-01-30T08:27:37;17.57;;;12.30;;
17854;SDS011;9053;53.358;6.382;2024-01-30T08:30:08;16.80;;;11.43;;
17854;SDS011;9053;53.358;6.382;2024-01-30T08:32:39;14.57;;;10.87;;
17854;SDS011;9053;53.358;6.382;2024-01-30T08:35:09;18.30;;;11.40;;
17854;SDS011;9053;53.358;6.382;2024-01-30T08:37:40;17.33;;;11.67;;
17854;SDS011;9053;53.358;6.382;2024-01-30T08:40:13;17.27;;;12.63;;
17854;SDS011;9053;53.358;6.382;2024-01-30T08:42:43;16.70;;;11.50;;
17854;SDS011;9053;53.358;6.382;2024-01-30T08:45:15;15.60;;;10.70;;
17854;SDS011;9053;53.358;6.382;2024-01-30T08:47:46;16.63;;;11.87;;
17854;SDS011;9053;53.358;6.382;2024-01-30T08:50:17;16.70;;;11.10;;
17854;SDS011;9053;53.358;6.382;2024-01-30T08:52:47;16.53;;;11.17;;
17854;SDS011;9053;53.358;6.382;2024-01-30T08:55:19;15.33;;;10.70;;
17854;SDS011;9053;53.358;6.382;2024-01-30T08:57:51;15.27;;;11.67;;
17854;SDS011;9053;53.358;6.382;2024-01-30T09:00:21;14.60;;;11.20;;
17854;SDS011;9053;53.358;6.382;2024-01-30T09:02:51;15.93;;;10.90;;
17854;SDS011;9053;53.358;6.382;2024-01-30T09:05:22;14.63;;;11.00;;
17854;SDS011;9053;53.358;6.382;2024-01-30T09:07:52;17.40;;;11.97;;
17854;SDS011;9053;53.358;6.382;2024-01-30T09:10:24;16.40;;;11.30;;
17854;SDS011;9053;53.358;6.382;2024-01-30T09:12:54;16.03;;;11.60;;
17854;SDS011;9053;53.358;6.382;2024-01-30T09:15:25;14.90;;;10.33;;
17854;SDS011;9053;53.358;6.382;2024-01-30T09:17:55;17.87;;;10.43;;
17854;SDS011;9053;53.358;6.382;2024-01-30T09:20:25;16.07;;;10.60;;
17854;SDS011;9053;53.358;6.382;2024-01-30T09:23:00;19.17;;;11.47;;
17854;SDS011;9053;53.358;6.382;2024-01-30T09:25:33;15.30;;;10.63;;
17854;SDS011;9053;53.358;6.382;2024-01-30T09:28:03;16.33;;;10.83;;
17854;SDS011;9053;53.358;6.382;2024-01-30T09:30:34;16.83;;;11.13;;
17854;SDS011;9053;53.358;6.382;2024-01-30T09:33:04;16.43;;;10.40;;
17854;SDS011;9053;53.358;6.382;2024-01-30T09:35:35;19.10;;;11.60;;
17854;SDS011;9053;53.358;6.382;2024-01-30T09:38:05;14.60;;;10.53;;
17854;SDS011;9053;53.358;6.382;2024-01-30T09:40:38;14.83;;;10.97;;
17854;SDS011;9053;53.358;6.382;2024-01-30T09:43:08;16.07;;;11.63;;
17854;SDS011;9053;53.358;6.382;2024-01-30T09:45:49;15.20;;;10.33;;
17854;SDS011;9053;53.358;6.382;2024-01-30T09:48:20;15.03;;;10.50;;
17854;SDS011;9053;53.358;6.382;2024-01-30T09:50:51;15.30;;;10.50;;
17854;SDS011;9053;53.358;6.382;2024-01-30T09:53:22;18.60;;;10.83;;
17854;SDS011;9053;53.358;6.382;2024-01-30T09:55:56;16.40;;;10.40;;
17854;SDS011;9053;53.358;6.382;2024-01-30T09:58:27;16.47;;;11.23;;
17854;SDS011;9053;53.358;6.382;2024-01-30T10:00:57;16.37;;;10.87;;
17854;SDS011;9053;53.358;6.382;2024-01-30T10:03:27;17.83;;;11.17;;
17854;SDS011;9053;53.358;6.382;2024-01-30T10:05:57;18.40;;;11.63;;
17854;SDS011;9053;53.358;6.382;2024-01-30T10:08:29;16.60;;;11.27;;
17854;SDS011;9053;53.358;6.382;2024-01-30T10:11:02;16.50;;;11.47;;
17854;SDS011;9053;53.358;6.382;2024-01-30T10:13:33;13.93;;;10.90;;
17854;SDS011;9053;53.358;6.382;2024-01-30T10:16:04;17.43;;;11.40;;
17854;SDS011;9053;53.358;6.382;2024-01-30T10:18:36;18.13;;;11.67;;
17854;SDS011;9053;53.358;6.382;2024-01-30T10:21:08;19.27;;;11.97;;
17854;SDS011;9053;53.358;6.382;2024-01-30T10:23:38;20.53;;;11.33;;
17854;SDS011;9053;53.358;6.382;2024-01-30T10:26:11;17.30;;;11.20;;
17854;SDS011;9053;53.358;6.382;2024-01-30T10:28:41;19.33;;;11.33;;
17854;SDS011;9053;53.358;6.382;2024-01-30T10:31:15;19.33;;;11.60;;
17854;SDS011;9053;53.358;6.382;2024-01-30T10:33:46;19.57;;;12.07;;
17854;SDS011;9053;53.358;6.382;2024-01-30T10:36:16;17.80;;;11.63;;
17854;SDS011;9053;53.358;6.382;2024-01-30T10:38:47;22.43;;;11.60;;
17854;SDS011;9053;53.358;6.382;2024-01-30T10:41:24;21.13;;;13.20;;
17854;SDS011;9053;53.358;6.382;2024-01-30T10:43:58;17.77;;;11.23;;
17854;SDS011;9053;53.358;6.382;2024-01-30T10:46:35;18.13;;;12.47;;
17854;SDS011;9053;53.358;6.382;2024-01-30T10:49:06;18.90;;;12.47;;
17854;SDS011;9053;53.358;6.382;2024-01-30T10:51:37;17.60;;;12.07;;
17854;SDS011;9053;53.358;6.382;2024-01-30T10:54:08;17.80;;;11.40;;
17854;SDS011;9053;53.358;6.382;2024-01-30T10:56:42;18.93;;;12.77;;
17854;SDS011;9053;53.358;6.382;2024-01-30T10:59:13;20.07;;;11.93;;
17854;SDS011;9053;53.358;6.382;2024-01-30T11:01:44;13.23;;;9.87;;
17854;SDS011;9053;53.358;6.382;2024-01-30T11:04:14;16.00;;;10.23;;
17854;SDS011;9053;53.358;6.382;2024-01-30T11:06:44;13.30;;;9.40;;
17854;SDS011;9053;53.358;6.382;2024-01-30T11:09:16;13.83;;;8.70;;
17854;SDS011;9053;53.358;6.382;2024-01-30T11:11:56;12.27;;;8.47;;
17854;SDS011;9053;53.358;6.382;2024-01-30T11:14:29;12.43;;;6.53;;
17854;SDS011;9053;53.358;6.382;2024-01-30T11:17:00;11.93;;;6.53;;
17854;SDS011;9053;53.358;6.382;2024-01-30T11:19:30;11.83;;;6.50;;
17854;SDS011;9053;53.358;6.382;2024-01-30T11:22:01;12.27;;;6.43;;
17854;SDS011;9053;53.358;6.382;2024-01-30T11:24:40;12.13;;;6.13;;
17854;SDS011;9053;53.358;6.382;2024-01-30T11:27:13;14.03;;;7.00;;
17854;SDS011;9053;53.358;6.382;2024-01-30T11:29:49;11.23;;;5.63;;
17854;SDS011;9053;53.358;6.382;2024-01-30T11:32:22;9.50;;;5.07;;
17854;SDS011;9053;53.358;6.382;2024-01-30T11:34:53;9.70;;;4.97;;
17854;SDS011;9053;53.358;6.382;2024-01-30T11:37:24;10.40;;;4.20;;
17854;SDS011;9053;53.358;6.382;2024-01-30T11:39:55;5.47;;;2.70;;
17854;SDS011;9053;53.358;6.382;2024-01-30T11:42:32;5.27;;;2.67;;
17854;SDS011;9053;53.358;6.382;2024-01-30T11:45:04;6.30;;;2.03;;
17854;SDS011;9053;53.358;6.382;2024-01-30T11:47:35;3.07;;;1.70;;
17854;SDS011;9053;53.358;6.382;2024-01-30T11:50:10;5.53;;;1.77;;
17854;SDS011;9053;53.358;6.382;2024-01-30T11:52:40;4.10;;;1.60;;
17854;SDS011;9053;53.358;6.382;2024-01-30T11:55:14;2.87;;;1.50;;
17854;SDS011;9053;53.358;6.382;2024-01-30T11:57:47;2.80;;;1.20;;
17854;SDS011;9053;53.358;6.382;2024-01-30T12:00:17;3.60;;;1.20;;
17854;SDS011;9053;53.358;6.382;2024-01-30T12:02:48;2.53;;;1.50;;
17854;SDS011;9053;53.358;6.382;2024-01-30T12:05:22;2.57;;;1.30;;
17854;SDS011;9053;53.358;6.382;2024-01-30T12:07:53;3.93;;;1.60;;
17854;SDS011;9053;53.358;6.382;2024-01-30T12:10:27;4.73;;;2.20;;
17854;SDS011;9053;53.358;6.382;2024-01-30T12:13:00;4.47;;;1.87;;
17854;SDS011;9053;53.358;6.382;2024-01-30T12:15:31;6.20;;;2.20;;
17854;SDS011;9053;53.358;6.382;2024-01-30T12:18:05;4.13;;;2.00;;
17854;SDS011;9053;53.358;6.382;2024-01-30T12:20:35;4.07;;;2.07;;
17854;SDS011;9053;53.358;6.382;2024-01-30T12:23:08;5.57;;;2.27;;
17854;SDS011;9053;53.358;6.382;2024-01-30T12:25:41;3.83;;;1.80;;
17854;SDS011;9053;53.358;6.382;2024-01-30T12:28:14;9.37;;;2.50;;
17854;SDS011;9053;53.358;6.382;2024-01-30T12:30:44;6.73;;;2.10;;
17854;SDS011;9053;53.358;6.382;2024-01-30T12:33:16;5.30;;;1.93;;
17854;SDS011;9053;53.358;6.382;2024-01-30T12:35:47;4.47;;;1.70;;
17854;SDS011;9053;53.358;6.382;2024-01-30T12:38:28;2.30;;;1.20;;
17854;SDS011;9053;53.358;6.382;2024-01-30T12:40:58;4.90;;;1.50;;
17854;SDS011;9053;53.358;6.382;2024-01-30T12:43:31;3.37;;;1.40;;
17854;SDS011;9053;53.358;6.382;2024-01-30T12:46:05;4.50;;;1.43;;
17854;SDS011;9053;53.358;6.382;2024-01-30T12:48:40;3.37;;;1.60;;
17854;SDS011;9053;53.358;6.382;2024-01-30T12:51:10;3.43;;;1.27;;
17854;SDS011;9053;53.358;6.382;2024-01-30T12:53:41;3.97;;;1.50;;
17854;SDS011;9053;53.358;6.382;2024-01-30T12:56:11;6.07;;;2.03;;
17854;SDS011;9053;53.358;6.382;2024-01-30T12:58:44;3.03;;;1.70;;
17854;SDS011;9053;53.358;6.382;2024-01-30T13:01:18;3.63;;;2.03;;
17854;SDS011;9053;53.358;6.382;2024-01-30T13:03:48;2.40;;;1.73;;
17854;SDS011;9053;53.358;6.382;2024-01-30T13:06:18;4.70;;;2.20;;
17854;SDS011;9053;53.358;6.382;2024-01-30T13:08:48;3.87;;;1.70;;
17854;SDS011;9053;53.358;6.382;2024-01-30T13:11:18;4.63;;;2.10;;
17854;SDS011;9053;53.358;6.382;2024-01-30T13:13:51;2.13;;;1.93;;
17854;SDS011;9053;53.358;6.382;2024-01-30T13:16:22;4.13;;;1.60;;
17854;SDS011;9053;53.358;6.382;2024-01-30T13:18:52;3.23;;;1.97;;
17854;SDS011;9053;53.358;6.382;2024-01-30T13:21:24;2.93;;;1.70;;
17854;SDS011;9053;53.358;6.382;2024-01-30T13:23:54;6.67;;;2.03;;
17854;SDS011;9053;53.358;6.382;2024-01-30T13:26:24;3.53;;;1.97;;
17854;SDS011;9053;53.358;6.382;2024-01-30T13:28:57;2.23;;;1.80;;
17854;SDS011;9053;53.358;6.382;2024-01-30T13:31:31;4.07;;;2.00;;
17854;SDS011;9053;53.358;6.382;2024-01-30T13:34:01;3.23;;;1.83;;
17854;SDS011;9053;53.358;6.382;2024-01-30T13:36:34;3.67;;;2.00;;
17854;SDS011;9053;53.358;6.382;2024-01-30T13:39:04;4.13;;;2.20;;
17854;SDS011;9053;53.358;6.382;2024-01-30T13:41:37;3.87;;;2.20;;
17854;SDS011;9053;53.358;6.382;2024-01-30T13:44:09;4.33;;;2.20;;
17854;SDS011;9053;53.358;6.382;2024-01-30T13:46:40;3.70;;;2.27;;
17854;SDS011;9053;53.358;6.382;2024-01-30T13:49:10;3.87;;;2.70;;
17854;SDS011;9053;53.358;6.382;2024-01-30T13:51:41;5.17;;;2.30;;
17854;SDS011;9053;53.358;6.382;2024-01-30T13:54:11;4.70;;;2.43;;
17854;SDS011;9053;53.358;6.382;2024-01-30T13:56:42;3.27;;;1.90;;
17854;SDS011;9053;53.358;6.382;2024-01-30T13:59:14;4.07;;;2.00;;
17854;SDS011;9053;53.358;6.382;2024-01-30T14:01:50;3.17;;;2.30;;
17854;SDS011;9053;53.358;6.382;2024-01-30T14:04:21;2.80;;;1.80;;
17854;SDS011;9053;53.358;6.382;2024-01-30T14:06:51;2.50;;;1.87;;
17854;SDS011;9053;53.358;6.382;2024-01-30T14:09:30;2.77;;;2.00;;
17854;SDS011;9053;53.358;6.382;2024-01-30T14:12:01;3.73;;;2.00;;
17854;SDS011;9053;53.358;6.382;2024-01-30T14:14:33;4.00;;;1.97;;
17854;SDS011;9053;53.358;6.382;2024-01-30T14:17:03;4.23;;;1.90;;
17854;SDS011;9053;53.358;6.382;2024-01-30T14:19:34;2.83;;;2.00;;
17854;SDS011;9053;53.358;6.382;2024-01-30T14:22:05;5.40;;;2.17;;
17854;SDS011;9053;53.358;6.382;2024-01-30T14:24:35;2.17;;;1.97;;
17854;SDS011;9053;53.358;6.382;2024-01-30T14:27:06;3.03;;;2.10;;
17854;SDS011;9053;53.358;6.382;2024-01-30T14:29:39;3.03;;;2.30;;
17854;SDS011;9053;53.358;6.382;2024-01-30T14:32:10;3.93;;;2.10;;
17854;SDS011;9053;53.358;6.382;2024-01-30T14:34:40;4.53;;;2.50;;
17854;SDS011;9053;53.358;6.382;2024-01-30T14:37:11;3.60;;;2.20;;
17854;SDS011;9053;53.358;6.382;2024-01-30T14:39:43;3.70;;;2.40;;
17854;SDS011;9053;53.358;6.382;2024-01-30T14:42:15;3.13;;;2.50;;
17854;SDS011;9053;53.358;6.382;2024-01-30T14:44:48;3.67;;;2.37;;
17854;SDS011;9053;53.358;6.382;2024-01-30T14:47:18;2.10;;;1.90;;
17854;SDS011;9053;53.358;6.382;2024-01-30T14:49:50;4.33;;;2.10;;
17854;SDS011;9053;53.358;6.382;2024-01-30T14:52:21;3.10;;;2.30;;
17854;SDS011;9053;53.358;6.382;2024-01-30T14:54:52;3.60;;;2.23;;
17854;SDS011;9053;53.358;6.382;2024-01-30T14:57:25;2.57;;;2.37;;
17854;SDS011;9053;53.358;6.382;2024-01-30T14:59:59;3.33;;;2.23;;
17854;SDS011;9053;53.358;6.382;2024-01-30T15:02:29;3.60;;;2.60;;
17854;SDS011;9053;53.358;6.382;2024-01-30T15:04:59;5.10;;;2.80;;